Time;durP1;ratioP1;P1;durP2;ratioP2;P2;SDS_P1;SDS_P2;PMS_P1;PMS_P2;Temp;Humidity;BMP_temperature;BMP_pressure;BME280_temperature;BME280_humidity;BME280_pressure;Samples;Min_cycle;Max_cycle;Signal;HPM_P1;HPM_P2
2023/09/16 00:01:51;;;;;;;18.42;16.63;;;;;;;16.03;83.41;101269.88;5052828;28;20086;-62
2023/09/16 00:04:20;;;;;;;18.10;16.27;;;;;;;16.05;83.44;101269.72;5052958;28;20021;-63
2023/09/16 00:06:46;;;;;;;17.83;15.68;;;;;;;16.02;83.05;101267.28;5052140;28;20453;-62
2023/09/16 00:09:11;;;;;;;17.90;16.20;;;;;;;15.95;83.21;101260.72;5052254;28;20020;-63
2023/09/16 00:11:37;;;;;;;16.95;15.35;;;;;;;16.04;83.04;101273.41;5052808;28;20388;-63
2023/09/16 00:14:02;;;;;;;17.35;15.55;;;;;;;15.90;83.58;101261.91;5034721;28;20027;-63
2023/09/16 00:16:29;;;;;;;19.00;17.20;;;;;;;15.95;83.26;101266.94;5052712;28;20122;-63
2023/09/16 00:18:55;;;;;;;16.98;15.57;;;;;;;15.89;83.58;101272.78;5035039;28;20044;-63
2023/09/16 00:21:21;;;;;;;20.95;15.23;;;;;;;15.91;83.39;101281.53;5051360;28;20028;-63
2023/09/16 00:23:46;;;;;;;17.10;15.30;;;;;;;15.90;83.82;101283.38;5051839;28;20025;-63
2023/09/16 00:26:15;;;;;;;16.27;14.77;;;;;;;15.85;83.67;101282.91;5051787;28;20363;-63
2023/09/16 00:28:40;;;;;;;16.70;15.02;;;;;;;15.85;83.81;101284.72;5067263;28;20106;-63
2023/09/16 00:31:11;;;;;;;16.67;15.18;;;;;;;15.87;83.67;101286.31;5052016;28;20111;-63
2023/09/16 00:33:37;;;;;;;15.95;14.35;;;;;;;15.82;83.92;101283.13;5051950;28;20476;-63
2023/09/16 00:36:04;;;;;;;17.40;15.35;;;;;;;15.79;84.01;101279.81;5050879;28;20036;-63
2023/09/16 00:38:30;;;;;;;16.38;14.80;;;;;;;15.82;83.78;101275.06;5066777;28;20045;-63
2023/09/16 00:40:55;;;;;;;15.23;13.85;;;;;;;15.74;84.27;101271.31;5033528;28;20475;-63
2023/09/16 00:43:21;;;;;;;15.38;13.88;;;;;;;15.60;84.25;101258.94;5051542;28;20056;-63
2023/09/16 00:45:46;;;;;;;14.70;13.27;;;;;;;15.69;84.47;101271.66;5051430;28;20044;-63
2023/09/16 00:48:17;;;;;;;15.95;13.88;;;;;;;15.59;84.87;101262.59;5051592;28;20433;-63
2023/09/16 00:50:44;;;;;;;15.65;14.07;;;;;;;15.62;84.62;101259.69;5066668;28;20021;-63
2023/09/16 00:53:11;;;;;;;14.30;12.98;;;;;;;15.64;85.12;101260.38;5052023;28;20025;-63
2023/09/16 00:55:38;;;;;;;15.38;13.77;;;;;;;15.60;85.02;101254.41;5052001;28;20075;-62
2023/09/16 00:58:04;;;;;;;16.23;14.63;;;;;;;15.65;85.21;101254.06;5067540;28;20391;-63
2023/09/16 01:00:30;;;;;;;14.98;13.13;;;;;;;15.57;85.62;101251.13;5052017;28;20032;-63
2023/09/16 01:02:58;;;;;;;15.48;13.93;;;;;;;15.51;86.15;101248.94;5051867;28;20395;-63
2023/09/16 01:05:24;;;;;;;14.27;12.93;;;;;;;15.55;85.92;101245.88;5066529;28;20013;-63
2023/09/16 01:07:50;;;;;;;14.77;13.27;;;;;;;15.47;85.76;101240.28;5051451;28;20441;-63
2023/09/16 01:10:22;;;;;;;15.65;14.00;;;;;;;15.52;85.97;101247.94;5051690;28;20480;-62
2023/09/16 01:12:50;;;;;;;14.60;13.07;;;;;;;15.44;86.24;101246.72;5067103;28;20036;-63
2023/09/16 01:15:17;;;;;;;15.40;14.00;;;;;;;15.45;86.28;101237.69;5066778;28;20025;-63
2023/09/16 01:18:03;;;;;;;14.10;12.68;;;;;;;15.47;86.33;101244.75;5051707;28;20029;-63
2023/09/16 01:20:29;;;;;;;14.77;13.23;;;;;;;15.34;86.27;101245.69;5050582;28;20028;-63
2023/09/16 01:22:55;;;;;;;16.05;14.45;;;;;;;15.35;86.65;101242.06;5049693;28;20032;-62
2023/09/16 01:25:24;;;;;;;15.40;14.00;;;;;;;15.29;86.75;101241.66;5051027;28;20017;-63
2023/09/16 01:27:50;;;;;;;15.10;13.68;;;;;;;15.37;86.38;101240.09;5050975;28;20025;-63
2023/09/16 01:30:15;;;;;;;15.43;13.88;;;;;;;15.35;86.59;101246.56;5051466;28;20025;-63
2023/09/16 01:32:41;;;;;;;15.35;13.73;;;;;;;15.36;86.56;101243.78;5050647;28;20112;-63
2023/09/16 01:35:10;;;;;;;14.90;13.38;;;;;;;15.30;86.43;101238.88;5033153;28;20028;-62
2023/09/16 01:37:38;;;;;;;14.95;13.48;;;;;;;15.27;86.92;101241.81;5050613;28;20135;-63
2023/09/16 01:40:10;;;;;;;15.45;13.73;;;;;;;15.28;87.29;101246.19;5051173;28;20025;-62
2023/09/16 01:42:36;;;;;;;15.77;14.20;;;;;;;15.17;87.71;101244.31;5051049;28;20024;-63
2023/09/16 01:45:02;;;;;;;16.05;14.27;;;;;;;15.24;87.59;101242.03;5050888;28;20483;-63
2023/09/16 01:47:28;;;;;;;15.27;13.80;;;;;;;15.31;87.21;101239.72;5065860;28;20036;-63
2023/09/16 01:49:53;;;;;;;16.73;14.93;;;;;;;15.19;87.58;101228.97;5033012;28;20108;-63
2023/09/16 01:52:18;;;;;;;16.77;15.13;;;;;;;15.12;87.34;101221.53;5050332;28;20052;-63
2023/09/16 01:54:44;;;;;;;17.90;16.10;;;;;;;15.12;87.40;101221.53;5050684;28;20051;-63
2023/09/16 01:57:09;;;;;;;16.42;14.93;;;;;;;15.14;87.56;101225.78;5050666;28;20442;-62
2023/09/16 01:59:34;;;;;;;17.17;15.55;;;;;;;15.07;87.72;101229.06;5051046;28;20029;-62
2023/09/16 02:02:00;;;;;;;17.23;15.82;;;;;;;15.15;87.58;101229.34;5050304;28;20071;-63
2023/09/16 02:04:25;;;;;;;18.17;16.38;;;;;;;15.08;87.94;101236.97;5050784;28;20055;-63
2023/09/16 02:06:51;;;;;;;17.33;15.50;;;;;;;15.09;87.94;101230.66;5050121;28;20472;-63
2023/09/16 02:09:16;;;;;;;18.08;15.80;;;;;;;15.01;88.26;101219.66;5050881;28;20104;-63
2023/09/16 02:11:42;;;;;;;16.65;15.05;;;;;;;15.07;88.04;101221.03;5051158;28;20495;-63
2023/09/16 02:14:15;;;;;;;18.30;16.52;;;;;;;14.99;89.02;101225.13;5051218;28;20100;-63
2023/09/16 02:16:41;;;;;;;17.40;15.80;;;;;;;14.91;88.64;101222.19;5050816;28;20424;-63
2023/09/16 02:19:06;;;;;;;17.70;15.98;;;;;;;15.01;88.44;101219.66;5051392;28;20032;-62
2023/09/16 02:21:32;;;;;;;17.27;15.45;;;;;;;14.95;88.82;101228.16;5066186;28;20489;-63
2023/09/16 02:23:58;;;;;;;18.08;16.45;;;;;;;14.98;88.64;101223.44;5051188;28;20383;-63
2023/09/16 02:26:23;;;;;;;19.42;17.60;;;;;;;14.92;88.62;101231.94;5050975;28;20107;-62
2023/09/16 02:28:48;;;;;;;21.48;19.38;;;;;;;14.91;88.69;101230.22;5050956;28;20029;-63
2023/09/16 02:31:16;;;;;;;21.55;19.52;;;;;;;14.88;88.95;101227.78;5050841;28;20032;-62
2023/09/16 02:33:41;;;;;;;21.40;19.25;;;;;;;14.88;89.05;101233.13;5054225;28;20056;-63
2023/09/16 02:36:07;;;;;;;22.20;19.95;;;;;;;14.82;89.08;101230.03;5054124;28;20380;-63
2023/09/16 02:38:33;;;;;;;21.67;19.58;;;;;;;14.77;89.46;101217.88;5054564;28;20411;-62
2023/09/16 02:41:01;;;;;;;22.05;19.85;;;;;;;14.70;89.32;101221.09;5054463;28;20021;-63
2023/09/16 02:43:27;;;;;;;20.92;19.02;;;;;;;14.81;88.98;101226.50;5069870;28;20476;-63
2023/09/16 02:45:55;;;;;;;20.30;18.40;;;;;;;14.70;89.33;101218.44;5036152;28;20028;-63
2023/09/16 02:48:21;;;;;;;20.27;18.17;;;;;;;14.84;88.98;101231.66;5054530;28;20017;-63
2023/09/16 02:50:46;;;;;;;18.80;16.80;;;;;;;14.64;90.06;101226.91;5036035;28;20476;-63
2023/09/16 02:53:16;;;;;;;18.88;17.08;;;;;;;14.66;89.86;101225.84;5054407;28;20032;-63
2023/09/16 02:55:41;;;;;;;20.45;18.38;;;;;;;14.59;90.28;101226.41;5054136;28;20020;-62
2023/09/16 02:58:07;;;;;;;18.20;16.30;;;;;;;14.58;89.99;101212.16;5054215;28;20113;-63
2023/09/16 03:00:33;;;;;;;17.85;15.98;;;;;;;14.69;89.29;101212.22;5053972;28;20033;-62
2023/09/16 03:02:58;;;;;;;18.23;16.42;;;;;;;14.67;89.45;101213.31;5069522;28;20029;-63
2023/09/16 03:05:23;;;;;;;17.40;15.70;;;;;;;14.60;89.88;101206.72;5069093;28;20108;-63
2023/09/16 03:07:49;;;;;;;18.35;16.38;;;;;;;14.64;89.75;101206.34;5036211;28;20028;-62
2023/09/16 03:10:15;;;;;;;18.75;16.92;;;;;;;14.65;89.82;101210.75;5036141;28;20056;-62
2023/09/16 03:12:40;;;;;;;18.73;16.95;;;;;;;14.68;89.78;101209.69;5053845;28;20032;-62
2023/09/16 03:15:06;;;;;;;19.83;16.55;;;;;;;14.65;89.75;101205.41;5069066;28;20518;-63
2023/09/16 03:17:32;;;;;;;18.70;16.88;;;;;;;14.60;90.00;101207.56;5053738;28;20538;-63
2023/09/16 03:19:57;;;;;;;17.70;15.90;;;;;;;14.64;89.99;101208.19;5036001;28;20054;-63
2023/09/16 03:22:25;;;;;;;18.50;16.67;;;;;;;14.60;89.96;101206.72;5053468;28;20021;-63
2023/09/16 03:24:50;;;;;;;18.00;16.38;;;;;;;14.61;90.42;101211.09;5053865;28;20086;-63
2023/09/16 03:27:16;;;;;;;19.80;17.88;;;;;;;14.55;90.39;101201.69;5068904;28;20021;-63
2023/09/16 03:29:41;;;;;;;19.42;17.52;;;;;;;14.60;90.45;101204.88;5053515;28;20029;-63
2023/09/16 03:32:07;;;;;;;20.15;18.10;;;;;;;14.57;90.55;101213.13;5053627;28;20028;-63
2023/09/16 03:34:32;;;;;;;20.48;18.45;;;;;;;14.58;90.61;101205.97;5053550;28;20032;-63
2023/09/16 03:36:58;;;;;;;18.80;16.90;;;;;;;14.61;90.42;101205.72;5052642;28;20175;-62
2023/09/16 03:39:24;;;;;;;19.63;17.15;;;;;;;14.55;90.68;101209.72;5053664;28;20033;-63
2023/09/16 03:41:49;;;;;;;20.52;16.98;;;;;;;14.55;90.95;101201.69;5053230;28;20032;-63
2023/09/16 03:44:15;;;;;;;18.90;17.00;;;;;;;14.51;90.56;101198.38;5052007;28;20028;-62
2023/09/16 03:46:40;;;;;;;18.50;16.63;;;;;;;14.50;90.69;101195.78;5053314;28;20512;-63
2023/09/16 03:49:08;;;;;;;18.65;16.75;;;;;;;14.44;90.58;101193.56;5053466;28;20025;-63
2023/09/16 03:51:35;;;;;;;18.63;16.75;;;;;;;14.32;91.48;101190.84;5052898;28;20040;-63
2023/09/16 03:54:01;;;;;;;18.38;16.33;;;;;;;14.44;91.31;101190.88;5053112;28;20032;-62
2023/09/16 03:56:26;;;;;;;17.35;15.63;;;;;;;14.43;91.22;101184.69;5052889;28;20028;-62
2023/09/16 03:58:51;;;;;;;18.60;16.67;;;;;;;14.35;91.36;101176.34;5068222;28;20502;-62
2023/09/16 04:01:17;;;;;;;18.85;16.95;;;;;;;14.45;91.30;101189.94;5052946;28;20020;-62
2023/09/16 04:03:43;;;;;;;18.70;16.92;;;;;;;14.34;91.59;101185.34;5053127;28;20054;-62
2023/09/16 04:06:08;;;;;;;18.73;17.00;;;;;;;14.24;91.44;101174.47;5052457;28;20039;-63
2023/09/16 04:08:36;;;;;;;18.42;16.65;;;;;;;14.39;91.58;101190.38;5035275;28;20028;-63
2023/09/16 04:11:01;;;;;;;18.98;17.00;;;;;;;14.34;91.39;101190.72;5068043;28;20040;-63
2023/09/16 04:13:26;;;;;;;17.23;15.63;;;;;;;14.31;91.65;101185.59;5052638;28;20032;-63
2023/09/16 04:15:52;;;;;;;18.20;16.60;;;;;;;14.29;91.46;101191.06;5034497;28;20028;-62
2023/09/16 04:18:18;;;;;;;19.75;17.17;;;;;;;14.23;91.71;101191.47;5052757;28;20079;-63
2023/09/16 04:20:46;;;;;;;17.00;15.40;;;;;;;14.28;91.45;101193.84;5067539;28;20032;-63
2023/09/16 04:23:11;;;;;;;17.38;15.55;;;;;;;14.20;91.84;101194.38;5067414;28;20434;-62
2023/09/16 04:25:39;;;;;;;18.13;16.23;;;;;;;14.26;91.83;101191.25;5052075;28;20024;-63
2023/09/16 04:28:05;;;;;;;18.48;16.52;;;;;;;14.27;91.50;101192.13;5052387;28;20116;-63
2023/09/16 04:30:30;;;;;;;18.23;16.42;;;;;;;14.24;91.68;101193.22;5034702;28;20063;-62
2023/09/16 04:32:56;;;;;;;19.58;17.77;;;;;;;14.18;92.12;101192.81;5052335;28;20071;-62
2023/09/16 04:35:22;;;;;;;18.77;16.88;;;;;;;14.18;92.22;101192.81;5067295;28;20024;-63
2023/09/16 04:37:47;;;;;;;19.60;17.65;;;;;;;14.16;92.13;101190.25;5052084;28;20049;-62
2023/09/16 04:40:13;;;;;;;20.27;18.27;;;;;;;14.17;92.08;101188.41;5034426;28;20033;-63
2023/09/16 04:42:38;;;;;;;21.10;18.90;;;;;;;14.19;92.12;101186.50;5052116;28;20078;-62
2023/09/16 04:45:05;;;;;;;22.10;19.55;;;;;;;14.16;92.19;101184.88;5052421;28;20024;-63
2023/09/16 04:47:31;;;;;;;22.20;19.92;;;;;;;14.12;92.56;101183.41;5052030;28;20025;-63
2023/09/16 04:49:57;;;;;;;22.08;19.83;;;;;;;14.09;92.66;101187.16;5034283;28;20506;-62
2023/09/16 04:52:25;;;;;;;22.77;20.63;;;;;;;14.13;92.59;101189.63;5033919;28;20107;-63
2023/09/16 04:54:54;;;;;;;24.15;21.85;;;;;;;14.06;93.27;101182.03;5067083;28;20049;-63
2023/09/16 04:57:21;;;;;;;24.75;22.08;;;;;;;14.05;93.23;101179.44;5051804;28;20103;-63
2023/09/16 04:59:46;;;;;;;23.55;21.25;;;;;;;14.04;93.00;101177.75;5052062;28;20082;-63
2023/09/16 05:02:12;;;;;;;24.58;22.05;;;;;;;13.99;93.29;101182.56;5051909;28;20028;-63
2023/09/16 05:04:38;;;;;;;24.35;21.85;;;;;;;14.07;93.22;101190.91;5052233;28;20472;-63
2023/09/16 05:07:06;;;;;;;23.30;21.13;;;;;;;14.01;92.88;101180.66;5033567;28;20063;-63
2023/09/16 05:09:32;;;;;;;24.15;21.73;;;;;;;13.93;93.62;101189.22;5067258;28;20053;-63
2023/09/16 05:11:57;;;;;;;24.60;22.08;;;;;;;14.02;93.59;101183.19;5051606;28;20063;-62
2023/09/16 05:14:24;;;;;;;23.38;21.13;;;;;;;14.02;93.43;101185.88;5051881;28;20132;-62
2023/09/16 05:16:49;;;;;;;25.70;23.30;;;;;;;14.02;93.45;101185.03;5033701;28;20024;-62
2023/09/16 05:19:15;;;;;;;24.65;22.27;;;;;;;14.00;93.43;101184.28;5051659;28;20489;-63
2023/09/16 05:21:40;;;;;;;25.48;22.98;;;;;;;14.05;93.25;101185.66;5066541;28;20039;-63
2023/09/16 05:24:06;;;;;;;24.90;22.50;;;;;;;14.01;93.38;101188.69;5051531;28;20075;-62
2023/09/16 05:26:31;;;;;;;23.48;21.25;;;;;;;13.98;93.60;101192.41;5051216;28;20550;-62
2023/09/16 05:28:57;;;;;;;23.45;21.20;;;;;;;13.94;93.54;101177.56;5051389;28;20353;-63
2023/09/16 05:31:23;;;;;;;21.50;19.40;;;;;;;13.97;93.82;101179.16;5033810;28;20044;-62
2023/09/16 05:33:52;;;;;;;21.80;19.70;;;;;;;13.98;93.99;101181.72;5051443;28;20392;-63
2023/09/16 05:36:19;;;;;;;20.75;18.70;;;;;;;14.01;94.03;101186.00;5050912;28;20059;-63
2023/09/16 05:38:44;;;;;;;20.33;18.42;;;;;;;14.00;94.22;101187.84;5050890;28;20470;-62
2023/09/16 05:41:09;;;;;;;20.48;18.35;;;;;;;14.03;94.37;101190.28;5033145;28;20094;-63
2023/09/16 05:43:35;;;;;;;20.08;18.08;;;;;;;14.02;94.33;101183.19;5051606;28;20487;-62
2023/09/16 05:46:01;;;;;;;19.65;17.67;;;;;;;14.03;94.43;101184.94;5051165;28;20147;-63
2023/09/16 05:48:27;;;;;;;19.58;17.58;;;;;;;14.04;94.74;101188.47;5033399;28;20057;-62
2023/09/16 05:50:59;;;;;;;18.05;16.33;;;;;;;14.05;95.00;101187.47;5050953;28;20043;-63
2023/09/16 05:53:26;;;;;;;19.77;17.92;;;;;;;14.04;95.06;101186.63;5051333;28;20071;-63
2023/09/16 05:55:53;;;;;;;19.17;17.23;;;;;;;14.07;95.37;101194.44;5050996;28;20404;-63
2023/09/16 05:58:18;;;;;;;18.88;17.15;;;;;;;14.09;95.17;101186.31;5066541;28;20067;-63
2023/09/16 06:00:52;;;;;;;19.17;17.25;;;;;;;14.14;95.37;101192.16;5016881;28;20029;-62
2023/09/16 06:03:17;;;;;;;19.17;17.30;;;;;;;14.07;95.92;101191.75;5033445;28;20049;-62
2023/09/16 06:05:43;;;;;;;18.30;16.70;;;;;;;14.20;95.96;101196.22;5050536;28;20424;-63
2023/09/16 06:08:09;;;;;;;19.38;17.58;;;;;;;14.21;96.22;101196.13;5053262;28;20032;-63
2023/09/16 06:10:35;;;;;;;19.25;17.33;;;;;;;14.21;96.37;101196.13;5055155;28;20017;-63
2023/09/16 06:13:03;;;;;;;20.80;18.83;;;;;;;14.22;96.60;101187.13;5036980;28;20025;-63
2023/09/16 06:15:29;;;;;;;20.05;18.05;;;;;;;14.22;96.82;101191.63;5054755;28;20056;-63
2023/09/16 06:17:54;;;;;;;22.02;19.70;;;;;;;14.26;97.11;101193.09;5054728;28;20029;-62
2023/09/16 06:20:20;;;;;;;21.40;19.35;;;;;;;14.33;97.28;101205.06;5054098;28;20013;-63
2023/09/16 06:22:45;;;;;;;22.90;20.50;;;;;;;14.36;97.39;101204.84;5054733;28;20075;-62
2023/09/16 06:25:11;;;;;;;22.92;20.77;;;;;;;14.41;97.62;101199.13;5054751;28;20479;-62
2023/09/16 06:27:36;;;;;;;23.23;19.60;;;;;;;14.46;97.89;101205.00;5054702;28;20031;-62
2023/09/16 06:30:02;;;;;;;23.77;21.25;;;;;;;14.47;97.99;101204.03;5054606;28;20021;-63
2023/09/16 06:32:27;;;;;;;22.55;20.35;;;;;;;14.53;98.22;101203.63;5054642;28;20067;-63
2023/09/16 06:34:53;;;;;;;24.88;22.38;;;;;;;14.59;98.05;101200.50;5054457;28;20021;-63
2023/09/16 06:37:18;;;;;;;24.05;21.73;;;;;;;14.61;98.80;101205.72;5053607;28;20462;-62
2023/09/16 06:39:46;;;;;;;24.55;22.20;;;;;;;14.55;99.38;101196.31;5054364;28;20055;-62
2023/09/16 06:42:11;;;;;;;27.10;24.42;;;;;;;14.64;100.00;101210.84;5054325;28;20051;-63
2023/09/16 06:44:37;;;;;;;29.75;26.83;;;;;;;14.70;100.00;101208.56;5054612;28;20021;-62
2023/09/16 06:47:02;;;;;;;27.92;25.17;;;;;;;14.75;100.00;101203.72;5054201;28;20107;-63
2023/09/16 06:49:28;;;;;;;30.38;27.48;;;;;;;14.74;100.00;101202.03;5054185;28;20032;-63
2023/09/16 06:51:55;;;;;;;30.13;27.20;;;;;;;14.92;100.00;101209.66;5035568;28;20657;-63
2023/09/16 06:54:23;;;;;;;30.48;27.55;;;;;;;14.97;100.00;101213.69;5054070;28;20104;-63
2023/09/16 06:56:51;;;;;;;30.13;27.25;;;;;;;15.07;100.00;101213.84;5054058;28;20376;-63
2023/09/16 06:59:16;;;;;;;30.05;27.10;;;;;;;15.20;100.00;101209.22;5036138;28;20056;-62
2023/09/16 07:01:41;;;;;;;29.20;26.17;;;;;;;15.30;100.00;101198.69;5053953;28;20052;-63
2023/09/16 07:04:07;;;;;;;28.25;25.75;;;;;;;15.37;100.00;101205.25;5054051;28;20021;-62
2023/09/16 07:06:32;;;;;;;27.48;24.83;;;;;;;15.43;100.00;101201.25;5053252;28;20509;-63
2023/09/16 07:09:00;;;;;;;25.58;22.63;;;;;;;15.56;99.90;101196.66;5069273;28;20025;-63
2023/09/16 07:11:25;;;;;;;26.30;23.55;;;;;;;15.56;100.00;101193.97;5053830;28;20029;-63
2023/09/16 07:13:51;;;;;;;22.55;20.33;;;;;;;15.75;99.29;101214.00;5069284;28;20032;-63
2023/09/16 07:16:20;;;;;;;21.95;19.85;;;;;;;15.78;99.38;101209.25;5035755;28;20021;-62
2023/09/16 07:18:45;;;;;;;20.98;18.85;;;;;;;15.95;97.69;101205.22;5035597;28;20479;-62
2023/09/16 07:21:11;;;;;;;21.08;19.08;;;;;;;16.04;98.82;101200.94;5052966;28;20112;-62
2023/09/16 07:23:36;;;;;;;22.88;17.70;;;;;;;16.18;96.79;101197.13;5053859;28;20025;-63
2023/09/16 07:26:01;;;;;;;18.95;17.10;;;;;;;16.28;95.28;101195.41;5053465;28;20100;-62
2023/09/16 07:28:28;;;;;;;19.13;17.20;;;;;;;16.43;94.93;101196.00;5068914;28;20154;-63
2023/09/16 07:30:54;;;;;;;18.88;16.77;;;;;;;16.54;94.43;101194.13;5053345;28;20377;-62
2023/09/16 07:33:20;;;;;;;18.25;16.15;;;;;;;16.67;94.18;101202.00;5035597;28;20033;-63
2023/09/16 07:35:45;;;;;;;18.73;16.80;;;;;;;16.69;94.65;101200.06;5034797;28;20464;-63
2023/09/16 07:38:11;;;;;;;19.50;16.48;;;;;;;16.63;97.46;101200.56;5053114;28;20021;-62
2023/09/16 07:40:38;;;;;;;18.20;16.27;;;;;;;16.68;97.20;101206.44;5053519;28;20048;-62
2023/09/16 07:43:08;;;;;;;18.42;16.52;;;;;;;16.62;98.89;101211.44;5035475;28;20438;-63
2023/09/16 07:45:34;;;;;;;17.92;16.13;;;;;;;16.83;94.74;101204.31;5053349;28;20025;-63
2023/09/16 07:47:59;;;;;;;18.70;16.58;;;;;;;16.97;94.11;101216.56;5068366;28;20506;-63
2023/09/16 07:50:25;;;;;;;18.20;15.00;;;;;;;17.15;93.31;101212.34;5052560;28;20519;-63
2023/09/16 07:52:51;;;;;;;18.60;16.45;;;;;;;17.23;92.67;101206.31;5053058;28;20033;-63
2023/09/16 07:55:16;;;;;;;17.65;15.80;;;;;;;17.24;95.02;101208.03;5034995;28;20021;-63
2023/09/16 07:57:42;;;;;;;19.65;15.55;;;;;;;17.32;92.60;101208.19;5053026;28;20483;-63
2023/09/16 08:00:10;;;;;;;17.08;15.18;;;;;;;17.43;90.73;101218.03;5052976;28;20107;-63
2023/09/16 08:02:35;;;;;;;16.80;15.13;;;;;;;17.52;89.18;101214.56;5053005;28;20033;-63
2023/09/16 08:05:01;;;;;;;21.90;16.13;;;;;;;17.68;89.08;101216.78;5052677;28;20494;-63
2023/09/16 08:07:26;;;;;;;16.45;14.73;;;;;;;17.82;88.73;101218.28;5052392;28;20380;-62
2023/09/16 08:09:52;;;;;;;16.27;14.68;;;;;;;17.88;91.17;101225.81;5052750;28;20033;-63
2023/09/16 08:12:19;;;;;;;15.82;14.32;;;;;;;18.01;91.81;101228.28;5068060;28;20518;-63
2023/09/16 08:14:45;;;;;;;15.23;13.63;;;;;;;18.09;89.02;101221.25;5052518;28;20423;-63
2023/09/16 08:17:10;;;;;;;15.48;13.45;;;;;;;18.26;86.86;101218.88;5034540;28;20025;-63
2023/09/16 08:19:36;;;;;;;18.33;16.40;;;;;;;18.44;85.58;101224.44;5052482;28;20490;-63
2023/09/16 08:22:01;;;;;;;20.35;15.13;;;;;;;18.69;85.08;101226.63;5034131;28;20032;-64
2023/09/16 08:24:27;;;;;;;16.40;13.50;;;;;;;18.84;83.61;101224.38;5034736;28;20132;-63
2023/09/16 08:26:52;;;;;;;16.85;15.05;;;;;;;19.00;84.79;101227.38;5052305;28;20040;-63
2023/09/16 08:29:18;;;;;;;17.08;15.05;;;;;;;19.33;82.66;101230.63;5052084;28;20086;-66
2023/09/16 08:31:43;;;;;;;17.70;16.00;;;;;;;19.47;80.77;101240.06;5051972;28;20156;-64
2023/09/16 08:34:11;;;;;;;18.88;15.82;;;;;;;19.59;82.94;101238.94;5052061;28;20490;-63
2023/09/16 08:36:37;;;;;;;15.00;13.50;;;;;;;19.76;79.72;101245.44;5051802;28;20472;-63
2023/09/16 08:39:02;;;;;;;15.18;13.48;;;;;;;19.94;82.33;101245.50;5034015;28;20064;-62
2023/09/16 08:41:42;;;;;;;13.80;12.43;;;;;;;20.13;79.16;101260.81;5067158;28;20047;-63
2023/09/16 08:44:09;;;;;;;13.68;12.30;;;;;;;20.17;75.73;101252.25;5051976;28;20064;-63
2023/09/16 08:46:41;;;;;;;18.30;12.65;;;;;;;20.27;75.79;101262.19;5034224;28;20013;-64
2023/09/16 08:49:09;;;;;;;13.18;11.75;;;;;;;20.50;74.68;101249.97;5067111;28;20033;-63
2023/09/16 08:51:39;;;;;;;16.17;12.77;;;;;;;20.34;74.04;101260.56;5067002;28;20048;-63
2023/09/16 08:54:07;;;;;;;13.45;12.00;;;;;;;20.44;74.07;101261.34;5052077;28;20021;-64
2023/09/16 08:56:33;;;;;;;13.13;10.32;;;;;;;20.55;72.88;101261.16;5033864;28;20025;-63
2023/09/16 08:58:59;;;;;;;13.45;11.48;;;;;;;20.57;74.48;101263.75;5051947;28;20392;-63
2023/09/16 09:01:25;;;;;;;12.88;11.57;;;;;;;20.68;75.00;101258.13;5051837;28;20071;-64
2023/09/16 09:03:52;;;;;;;14.15;11.88;;;;;;;20.85;73.63;101253.72;5051784;28;20048;-64
2023/09/16 09:06:19;;;;;;;17.45;13.45;;;;;;;21.10;72.97;101258.34;5051358;28;20067;-64
2023/09/16 09:08:45;;;;;;;15.55;13.45;;;;;;;21.14;74.97;101252.63;5051749;28;20116;-63
2023/09/16 09:11:14;;;;;;;15.05;12.85;;;;;;;21.30;74.74;101250.09;5051399;28;20092;-63
2023/09/16 09:13:42;;;;;;;15.55;13.60;;;;;;;21.57;74.42;101259.94;5051855;28;20417;-63
2023/09/16 09:16:09;;;;;;;16.08;13.45;;;;;;;21.67;73.36;101254.41;5051583;28;20439;-63
2023/09/16 09:18:37;;;;;;;15.82;13.07;;;;;;;21.55;74.82;101257.38;5051739;28;20411;-64
2023/09/16 09:21:04;;;;;;;15.88;12.95;;;;;;;21.70;73.01;101262.22;5050933;28;20027;-64
2023/09/16 09:23:30;;;;;;;14.13;12.48;;;;;;;21.93;71.23;101276.09;5051668;28;20111;-64
2023/09/16 09:25:58;;;;;;;14.30;12.10;;;;;;;21.98;70.83;101281.88;5051497;28;20083;-63
2023/09/16 09:28:25;;;;;;;15.52;13.25;;;;;;;21.96;71.11;101270.34;5033624;28;20476;-64
2023/09/16 09:30:52;;;;;;;13.27;11.95;;;;;;;22.17;69.89;101281.66;5051618;28;20036;-64
2023/09/16 09:33:20;;;;;;;12.77;11.57;;;;;;;22.26;68.83;101276.28;5066915;28;20029;-64
2023/09/16 09:35:45;;;;;;;15.70;11.98;;;;;;;22.40;68.10;101273.78;5033077;28;20476;-64
2023/09/16 09:38:11;;;;;;;14.77;10.88;;;;;;;22.52;68.64;101276.22;5051213;28;20138;-63
2023/09/16 09:40:36;;;;;;;14.90;12.20;;;;;;;22.64;67.62;101280.31;5051092;28;20059;-64
2023/09/16 09:43:03;;;;;;;13.23;11.38;;;;;;;22.53;69.71;101280.63;5053873;28;20033;-63
2023/09/16 09:45:35;;;;;;;12.40;11.18;;;;;;;22.78;67.30;101281.53;5070733;28;20059;-64
2023/09/16 09:48:00;;;;;;;15.43;11.25;;;;;;;22.69;65.68;101277.97;5070616;28;20029;-64
2023/09/16 09:50:30;;;;;;;14.13;11.77;;;;;;;22.83;66.51;101288.16;5054716;28;20172;-63
2023/09/16 09:52:56;;;;;;;12.93;11.60;;;;;;;22.83;66.17;101280.03;5070927;28;20037;-63
2023/09/16 09:55:29;;;;;;;12.25;11.05;;;;;;;22.90;67.35;101281.06;5055003;28;20025;-63
2023/09/16 09:57:54;;;;;;;12.95;11.75;;;;;;;22.90;64.87;101280.22;5037416;28;20025;-64
2023/09/16 10:00:21;;;;;;;14.07;11.88;;;;;;;23.03;64.45;101288.75;5054853;28;20383;-64
2023/09/16 10:02:48;;;;;;;12.93;11.50;;;;;;;23.40;62.89;101284.69;5055272;28;20056;-64
2023/09/16 10:05:20;;;;;;;13.13;11.18;;;;;;;23.64;62.62;101281.09;5054873;28;20047;-63
2023/09/16 10:07:47;;;;;;;11.23;10.10;;;;;;;23.77;62.41;101280.63;5037310;28;20109;-64
2023/09/16 10:10:24;;;;;;;13.25;11.07;;;;;;;23.85;63.83;101275.16;5070244;28;20074;-64
2023/09/16 10:12:53;;;;;;;10.90;9.35;;;;;;;24.14;61.52;101274.56;5055106;28;20056;-63
2023/09/16 10:15:32;;;;;;;11.85;10.13;;;;;;;24.39;61.95;101277.19;5036591;28;20025;-64
2023/09/16 10:17:58;;;;;;;12.75;10.77;;;;;;;24.53;59.13;101270.19;5054856;28;20032;-63
2023/09/16 10:20:26;;;;;;;11.73;9.63;;;;;;;24.81;59.53;101273.25;5036336;28;20045;-64
2023/09/16 10:22:54;;;;;;;10.27;9.18;;;;;;;24.89;61.62;101273.22;5054950;28;20031;-64
2023/09/16 10:25:21;;;;;;;11.43;10.32;;;;;;;24.92;59.64;101272.84;5054778;28;20079;-63
2023/09/16 10:28:03;;;;;;;11.95;10.23;;;;;;;25.15;57.32;101273.72;5069627;28;20468;-64
2023/09/16 10:30:32;;;;;;;10.18;9.10;;;;;;;25.25;58.30;101268.03;5054106;28;20029;-64
2023/09/16 10:33:18;;;;;;;12.07;10.05;;;;;;;25.44;58.64;101266.66;5036863;28;20844;-63
2023/09/16 10:35:43;;;;;;;11.85;9.80;;;;;;;25.38;57.91;101257.38;5054085;28;20033;-63
2023/09/16 10:38:11;;;;;;;12.15;9.48;;;;;;;25.66;57.44;101264.94;5054524;28;20021;-64
2023/09/16 10:40:38;;;;;;;9.70;8.80;;;;;;;25.80;55.71;101263.28;5054248;28;20059;-63
2023/09/16 10:43:04;;;;;;;11.07;8.95;;;;;;;25.91;55.34;101262.81;5054531;28;20029;-64
2023/09/16 10:45:31;;;;;;;11.85;9.35;;;;;;;25.88;53.96;101257.75;5054191;28;20045;-64
2023/09/16 10:47:59;;;;;;;10.35;9.20;;;;;;;26.05;52.69;101253.78;5054328;28;20028;-63
2023/09/16 10:50:29;;;;;;;12.60;9.73;;;;;;;26.15;53.68;101250.81;5053812;28;20545;-64
2023/09/16 10:53:02;;;;;;;8.57;7.57;;;;;;;26.15;57.46;101247.19;5036649;28;20024;-63
2023/09/16 10:55:54;;;;;;;9.75;8.75;;;;;;;26.42;56.86;101254.72;5054068;28;20024;-63
2023/09/16 10:58:31;;;;;;;10.20;9.13;;;;;;;26.40;55.57;101251.31;5053901;28;20107;-64
2023/09/16 11:00:58;;;;;;;10.38;9.38;;;;;;;26.45;53.18;101237.97;5053962;28;20020;-64
2023/09/16 11:03:30;;;;;;;11.30;10.10;;;;;;;26.88;52.66;101239.91;5054648;28;20029;-64
2023/09/16 11:06:01;;;;;;;9.88;8.95;;;;;;;27.27;53.42;101242.22;5053471;28;20112;-63
2023/09/16 11:08:27;;;;;;;10.82;9.57;;;;;;;27.62;51.18;101245.00;5054103;28;20041;-64